sensor_id;sensor_type;location;lat;lon;timestamp;P1;durP1;ratioP1;P2;durP2;ratioP2
1577;SDS011;57623;53.608;10.004;2024-02-26T00:02:17;9.20;;;8.27;;
1577;SDS011;57623;53.608;10.004;2024-02-26T00:04:47;9.60;;;8.60;;
1577;SDS011;57623;53.608;10.004;2024-02-26T00:07:15;8.77;;;7.87;;
1577;SDS011;57623;53.608;10.004;2024-02-26T00:09:43;9.03;;;8.13;;
1577;SDS011;57623;53.608;10.004;2024-02-26T00:12:11;8.33;;;7.40;;
1577;SDS011;57623;53.608;10.004;2024-02-26T00:14:39;10.13;;;8.30;;
1577;SDS011;57623;53.608;10.004;2024-02-26T00:17:07;8.77;;;7.90;;
1577;SDS011;57623;53.608;10.004;2024-02-26T00:19:35;9.03;;;7.77;;
1577;SDS011;57623;53.608;10.004;2024-02-26T00:22:05;8.23;;;7.43;;
1577;SDS011;57623;53.608;10.004;2024-02-26T00:24:33;7.83;;;7.13;;
1577;SDS011;57623;53.608;10.004;2024-02-26T00:27:01;9.03;;;8.20;;
1577;SDS011;57623;53.608;10.004;2024-02-26T00:29:29;9.23;;;8.30;;
1577;SDS011;57623;53.608;10.004;2024-02-26T00:31:58;8.60;;;7.70;;
1577;SDS011;57623;53.608;10.004;2024-02-26T00:34:26;9.40;;;7.33;;
1577;SDS011;57623;53.608;10.004;2024-02-26T00:36:55;9.30;;;7.50;;
1577;SDS011;57623;53.608;10.004;2024-02-26T00:39:25;8.00;;;7.20;;
1577;SDS011;57623;53.608;10.004;2024-02-26T00:41:53;9.20;;;7.50;;
1577;SDS011;57623;53.608;10.004;2024-02-26T00:44:21;8.73;;;7.60;;
1577;SDS011;57623;53.608;10.004;2024-02-26T00:46:49;7.53;;;6.83;;
1577;SDS011;57623;53.608;10.004;2024-02-26T00:49:17;8.10;;;7.30;;
1577;SDS011;57623;53.608;10.004;2024-02-26T00:51:45;8.73;;;7.93;;
1577;SDS011;57623;53.608;10.004;2024-02-26T00:54:13;9.13;;;8.20;;
1577;SDS011;57623;53.608;10.004;2024-02-26T00:56:42;8.73;;;7.83;;
1577;SDS011;57623;53.608;10.004;2024-02-26T00:59:10;8.63;;;7.73;;
1577;SDS011;57623;53.608;10.004;2024-02-26T01:01:38;9.60;;;7.80;;
1577;SDS011;57623;53.608;10.004;2024-02-26T01:04:06;8.40;;;7.50;;
1577;SDS011;57623;53.608;10.004;2024-02-26T01:06:34;9.13;;;8.17;;
1577;SDS011;57623;53.608;10.004;2024-02-26T01:09:03;9.10;;;8.20;;
1577;SDS011;57623;53.608;10.004;2024-02-26T01:11:31;8.27;;;7.47;;
1577;SDS011;57623;53.608;10.004;2024-02-26T01:14:00;10.07;;;8.30;;
1577;SDS011;57623;53.608;10.004;2024-02-26T01:16:30;9.67;;;8.00;;
1577;SDS011;57623;53.608;10.004;2024-02-26T01:18:58;9.53;;;8.50;;
1577;SDS011;57623;53.608;10.004;2024-02-26T01:21:26;9.60;;;7.93;;
1577;SDS011;57623;53.608;10.004;2024-02-26T01:23:55;8.53;;;7.73;;
1577;SDS011;57623;53.608;10.004;2024-02-26T01:26:23;10.37;;;8.93;;
1577;SDS011;57623;53.608;10.004;2024-02-26T01:28:51;9.93;;;9.03;;
1577;SDS011;57623;53.608;10.004;2024-02-26T01:31:22;9.43;;;8.43;;
1577;SDS011;57623;53.608;10.004;2024-02-26T01:33:50;9.30;;;8.33;;
1577;SDS011;57623;53.608;10.004;2024-02-26T01:36:19;10.60;;;8.90;;
1577;SDS011;57623;53.608;10.004;2024-02-26T01:38:47;9.57;;;8.57;;
1577;SDS011;57623;53.608;10.004;2024-02-26T01:41:15;9.50;;;8.37;;
1577;SDS011;57623;53.608;10.004;2024-02-26T01:43:43;10.80;;;8.70;;
1577;SDS011;57623;53.608;10.004;2024-02-26T01:46:12;10.50;;;9.03;;
1577;SDS011;57623;53.608;10.004;2024-02-26T01:48:43;9.87;;;8.60;;
1577;SDS011;57623;53.608;10.004;2024-02-26T01:51:13;9.27;;;8.30;;
1577;SDS011;57623;53.608;10.004;2024-02-26T01:53:44;10.63;;;9.50;;
1577;SDS011;57623;53.608;10.004;2024-02-26T01:56:12;10.07;;;9.03;;
1577;SDS011;57623;53.608;10.004;2024-02-26T01:58:41;10.07;;;8.97;;
1577;SDS011;57623;53.608;10.004;2024-02-26T02:01:10;9.10;;;8.20;;
1577;SDS011;57623;53.608;10.004;2024-02-26T02:03:39;9.03;;;8.10;;
1577;SDS011;57623;53.608;10.004;2024-02-26T02:06:09;8.90;;;8.00;;
1577;SDS011;57623;53.608;10.004;2024-02-26T02:08:37;9.00;;;8.13;;
1577;SDS011;57623;53.608;10.004;2024-02-26T02:11:06;9.60;;;8.27;;
1577;SDS011;57623;53.608;10.004;2024-02-26T02:13:36;10.10;;;8.67;;
1577;SDS011;57623;53.608;10.004;2024-02-26T02:16:04;10.37;;;9.27;;
1577;SDS011;57623;53.608;10.004;2024-02-26T02:18:33;10.47;;;8.80;;
1577;SDS011;57623;53.608;10.004;2024-02-26T02:21:02;9.50;;;8.50;;
1577;SDS011;57623;53.608;10.004;2024-02-26T02:23:31;8.97;;;8.17;;
1577;SDS011;57623;53.608;10.004;2024-02-26T02:25:59;9.73;;;8.70;;
1577;SDS011;57623;53.608;10.004;2024-02-26T02:28:29;8.63;;;7.73;;
1577;SDS011;57623;53.608;10.004;2024-02-26T02:30:58;9.80;;;8.73;;
1577;SDS011;57623;53.608;10.004;2024-02-26T02:33:27;10.23;;;9.23;;
1577;SDS011;57623;53.608;10.004;2024-02-26T02:35:55;9.20;;;8.30;;
1577;SDS011;57623;53.608;10.004;2024-02-26T02:38:25;13.10;;;9.87;;
1577;SDS011;57623;53.608;10.004;2024-02-26T02:41:00;12.27;;;10.43;;
1577;SDS011;57623;53.608;10.004;2024-02-26T02:43:29;13.00;;;10.00;;
1577;SDS011;57623;53.608;10.004;2024-02-26T02:45:56;12.23;;;10.70;;
1577;SDS011;57623;53.608;10.004;2024-02-26T02:48:24;11.50;;;10.00;;
1577;SDS011;57623;53.608;10.004;2024-02-26T02:50:53;12.10;;;10.80;;
1577;SDS011;57623;53.608;10.004;2024-02-26T02:53:21;12.67;;;11.37;;
1577;SDS011;57623;53.608;10.004;2024-02-26T02:55:50;12.87;;;10.90;;
1577;SDS011;57623;53.608;10.004;2024-02-26T02:58:18;13.23;;;10.53;;
1577;SDS011;57623;53.608;10.004;2024-02-26T03:00:46;14.90;;;11.07;;
1577;SDS011;57623;53.608;10.004;2024-02-26T03:03:14;11.80;;;10.13;;
1577;SDS011;57623;53.608;10.004;2024-02-26T03:05:42;12.07;;;10.60;;
1577;SDS011;57623;53.608;10.004;2024-02-26T03:08:11;12.37;;;10.37;;
1577;SDS011;57623;53.608;10.004;2024-02-26T03:10:39;12.50;;;11.20;;
1577;SDS011;57623;53.608;10.004;2024-02-26T03:13:10;13.43;;;11.23;;
1577;SDS011;57623;53.608;10.004;2024-02-26T03:15:38;14.97;;;12.07;;
1577;SDS011;57623;53.608;10.004;2024-02-26T03:18:06;14.30;;;12.77;;
1577;SDS011;57623;53.608;10.004;2024-02-26T03:20:34;13.73;;;12.20;;
1577;SDS011;57623;53.608;10.004;2024-02-26T03:23:03;12.87;;;10.83;;
1577;SDS011;57623;53.608;10.004;2024-02-26T03:25:31;13.23;;;11.87;;
1577;SDS011;57623;53.608;10.004;2024-02-26T03:27:59;13.20;;;11.73;;
1577;SDS011;57623;53.608;10.004;2024-02-26T03:30:27;13.13;;;11.70;;
1577;SDS011;57623;53.608;10.004;2024-02-26T03:32:56;15.03;;;13.30;;
1577;SDS011;57623;53.608;10.004;2024-02-26T03:35:24;14.10;;;12.60;;
1577;SDS011;57623;53.608;10.004;2024-02-26T03:37:52;13.77;;;11.20;;
1577;SDS011;57623;53.608;10.004;2024-02-26T03:40:20;13.97;;;12.20;;
1577;SDS011;57623;53.608;10.004;2024-02-26T03:42:48;13.97;;;12.47;;
1577;SDS011;57623;53.608;10.004;2024-02-26T03:45:16;12.70;;;11.40;;
1577;SDS011;57623;53.608;10.004;2024-02-26T03:47:45;12.57;;;11.27;;
1577;SDS011;57623;53.608;10.004;2024-02-26T03:50:13;14.80;;;12.70;;
1577;SDS011;57623;53.608;10.004;2024-02-26T03:52:42;12.80;;;11.43;;
1577;SDS011;57623;53.608;10.004;2024-02-26T03:55:10;13.40;;;11.83;;
1577;SDS011;57623;53.608;10.004;2024-02-26T03:57:38;15.07;;;12.60;;
1577;SDS011;57623;53.608;10.004;2024-02-26T04:00:06;13.20;;;11.40;;
1577;SDS011;57623;53.608;10.004;2024-02-26T04:02:35;13.47;;;11.67;;
1577;SDS011;57623;53.608;10.004;2024-02-26T04:05:13;13.13;;;11.60;;
1577;SDS011;57623;53.608;10.004;2024-02-26T04:07:41;14.07;;;12.37;;
1577;SDS011;57623;53.608;10.004;2024-02-26T04:10:10;14.60;;;12.97;;
1577;SDS011;57623;53.608;10.004;2024-02-26T04:12:39;14.70;;;11.97;;
1577;SDS011;57623;53.608;10.004;2024-02-26T04:15:08;13.57;;;11.80;;
1577;SDS011;57623;53.608;10.004;2024-02-26T04:17:37;14.03;;;11.33;;
1577;SDS011;57623;53.608;10.004;2024-02-26T04:20:08;15.07;;;12.90;;
1577;SDS011;57623;53.608;10.004;2024-02-26T04:22:40;14.60;;;12.93;;
1577;SDS011;57623;53.608;10.004;2024-02-26T04:25:08;15.40;;;13.30;;
1577;SDS011;57623;53.608;10.004;2024-02-26T04:27:36;13.83;;;12.07;;
1577;SDS011;57623;53.608;10.004;2024-02-26T04:30:05;12.97;;;11.37;;
1577;SDS011;57623;53.608;10.004;2024-02-26T04:32:33;14.10;;;11.93;;
1577;SDS011;57623;53.608;10.004;2024-02-26T04:35:02;13.97;;;12.20;;
1577;SDS011;57623;53.608;10.004;2024-02-26T04:37:31;14.40;;;12.27;;
1577;SDS011;57623;53.608;10.004;2024-02-26T04:39:59;13.67;;;11.57;;
1577;SDS011;57623;53.608;10.004;2024-02-26T04:42:28;14.70;;;12.40;;
1577;SDS011;57623;53.608;10.004;2024-02-26T04:44:56;13.47;;;11.77;;
1577;SDS011;57623;53.608;10.004;2024-02-26T04:47:24;13.17;;;11.83;;
1577;SDS011;57623;53.608;10.004;2024-02-26T04:49:52;12.17;;;10.37;;
1577;SDS011;57623;53.608;10.004;2024-02-26T04:52:21;13.27;;;11.07;;
1577;SDS011;57623;53.608;10.004;2024-02-26T04:54:49;14.20;;;11.70;;
1577;SDS011;57623;53.608;10.004;2024-02-26T04:57:17;13.63;;;11.77;;
1577;SDS011;57623;53.608;10.004;2024-02-26T04:59:45;13.70;;;11.00;;
1577;SDS011;57623;53.608;10.004;2024-02-26T05:02:13;14.30;;;12.20;;
1577;SDS011;57623;53.608;10.004;2024-02-26T05:04:42;14.03;;;11.80;;
1577;SDS011;57623;53.608;10.004;2024-02-26T05:07:10;13.90;;;11.27;;
1577;SDS011;57623;53.608;10.004;2024-02-26T05:09:39;11.90;;;10.70;;
1577;SDS011;57623;53.608;10.004;2024-02-26T05:12:09;14.23;;;11.33;;
1577;SDS011;57623;53.608;10.004;2024-02-26T05:14:37;14.03;;;11.77;;
1577;SDS011;57623;53.608;10.004;2024-02-26T05:17:06;12.90;;;11.33;;
1577;SDS011;57623;53.608;10.004;2024-02-26T05:19:34;13.33;;;11.70;;
1577;SDS011;57623;53.608;10.004;2024-02-26T05:22:02;13.30;;;11.07;;
1577;SDS011;57623;53.608;10.004;2024-02-26T05:24:30;13.70;;;12.00;;
1577;SDS011;57623;53.608;10.004;2024-02-26T05:26:58;11.60;;;10.30;;
1577;SDS011;57623;53.608;10.004;2024-02-26T05:29:28;12.03;;;10.80;;
1577;SDS011;57623;53.608;10.004;2024-02-26T05:31:57;12.70;;;10.90;;
1577;SDS011;57623;53.608;10.004;2024-02-26T05:34:25;12.80;;;11.27;;
1577;SDS011;57623;53.608;10.004;2024-02-26T05:36:53;12.20;;;10.70;;
1577;SDS011;57623;53.608;10.004;2024-02-26T05:39:21;13.40;;;11.73;;
1577;SDS011;57623;53.608;10.004;2024-02-26T05:41:49;13.50;;;10.90;;
1577;SDS011;57623;53.608;10.004;2024-02-26T05:44:17;13.83;;;11.83;;
1577;SDS011;57623;53.608;10.004;2024-02-26T05:46:46;11.83;;;10.33;;
1577;SDS011;57623;53.608;10.004;2024-02-26T05:49:14;15.30;;;10.67;;
1577;SDS011;57623;53.608;10.004;2024-02-26T05:51:42;14.13;;;12.20;;
1577;SDS011;57623;53.608;10.004;2024-02-26T05:54:10;13.00;;;11.43;;
1577;SDS011;57623;53.608;10.004;2024-02-26T05:56:39;13.63;;;11.87;;
1577;SDS011;57623;53.608;10.004;2024-02-26T05:59:07;12.93;;;11.50;;
1577;SDS011;57623;53.608;10.004;2024-02-26T06:01:34;13.47;;;11.70;;
1577;SDS011;57623;53.608;10.004;2024-02-26T06:04:04;11.77;;;10.50;;
1577;SDS011;57623;53.608;10.004;2024-02-26T06:06:32;14.23;;;11.73;;
1577;SDS011;57623;53.608;10.004;2024-02-26T06:09:00;15.40;;;11.20;;
1577;SDS011;57623;53.608;10.004;2024-02-26T06:11:31;15.10;;;11.20;;
1577;SDS011;57623;53.608;10.004;2024-02-26T06:13:59;13.10;;;10.90;;
1577;SDS011;57623;53.608;10.004;2024-02-26T06:16:29;12.73;;;11.07;;
1577;SDS011;57623;53.608;10.004;2024-02-26T06:18:58;14.13;;;11.90;;
1577;SDS011;57623;53.608;10.004;2024-02-26T06:21:28;13.43;;;11.27;;
1577;SDS011;57623;53.608;10.004;2024-02-26T06:23:56;12.90;;;10.73;;
1577;SDS011;57623;53.608;10.004;2024-02-26T06:26:25;13.67;;;12.17;;
1577;SDS011;57623;53.608;10.004;2024-02-26T06:28:55;15.67;;;12.83;;
1577;SDS011;57623;53.608;10.004;2024-02-26T06:31:22;13.03;;;11.43;;
1577;SDS011;57623;53.608;10.004;2024-02-26T06:33:53;16.50;;;13.30;;
1577;SDS011;57623;53.608;10.004;2024-02-26T06:36:22;13.60;;;11.90;;
1577;SDS011;57623;53.608;10.004;2024-02-26T06:38:51;14.47;;;12.13;;
1577;SDS011;57623;53.608;10.004;2024-02-26T06:41:20;14.70;;;12.07;;
1577;SDS011;57623;53.608;10.004;2024-02-26T06:43:53;15.60;;;12.87;;
1577;SDS011;57623;53.608;10.004;2024-02-26T06:46:21;15.53;;;11.80;;
1577;SDS011;57623;53.608;10.004;2024-02-26T06:48:50;16.40;;;13.30;;
1577;SDS011;57623;53.608;10.004;2024-02-26T06:51:21;18.23;;;14.03;;
1577;SDS011;57623;53.608;10.004;2024-02-26T06:53:49;17.57;;;14.20;;
1577;SDS011;57623;53.608;10.004;2024-02-26T06:56:19;14.57;;;11.80;;
1577;SDS011;57623;53.608;10.004;2024-02-26T06:58:47;17.33;;;13.10;;
1577;SDS011;57623;53.608;10.004;2024-02-26T07:01:14;16.60;;;13.63;;
1577;SDS011;57623;53.608;10.004;2024-02-26T07:03:43;15.30;;;12.13;;
1577;SDS011;57623;53.608;10.004;2024-02-26T07:06:11;15.60;;;12.20;;
1577;SDS011;57623;53.608;10.004;2024-02-26T07:08:39;16.90;;;13.57;;
1577;SDS011;57623;53.608;10.004;2024-02-26T07:11:09;16.30;;;12.97;;
1577;SDS011;57623;53.608;10.004;2024-02-26T07:13:38;16.53;;;13.20;;
1577;SDS011;57623;53.608;10.004;2024-02-26T07:16:06;16.10;;;12.83;;
1577;SDS011;57623;53.608;10.004;2024-02-26T07:18:36;17.23;;;12.93;;
1577;SDS011;57623;53.608;10.004;2024-02-26T07:21:04;16.00;;;12.63;;
1577;SDS011;57623;53.608;10.004;2024-02-26T07:23:32;16.63;;;13.00;;
1577;SDS011;57623;53.608;10.004;2024-02-26T07:26:00;15.70;;;12.83;;
1577;SDS011;57623;53.608;10.004;2024-02-26T07:28:29;17.37;;;13.20;;
1577;SDS011;57623;53.608;10.004;2024-02-26T07:30:58;16.70;;;13.60;;
1577;SDS011;57623;53.608;10.004;2024-02-26T07:33:26;17.10;;;13.20;;
1577;SDS011;57623;53.608;10.004;2024-02-26T07:35:54;17.40;;;12.90;;
1577;SDS011;57623;53.608;10.004;2024-02-26T07:38:22;16.10;;;12.50;;
1577;SDS011;57623;53.608;10.004;2024-02-26T07:41:07;15.40;;;12.60;;
1577;SDS011;57623;53.608;10.004;2024-02-26T07:43:36;17.00;;;13.10;;
1577;SDS011;57623;53.608;10.004;2024-02-26T07:46:04;17.50;;;13.90;;
1577;SDS011;57623;53.608;10.004;2024-02-26T07:48:32;17.90;;;13.60;;
1577;SDS011;57623;53.608;10.004;2024-02-26T07:51:00;16.70;;;13.30;;
1577;SDS011;57623;53.608;10.004;2024-02-26T07:53:29;16.87;;;13.13;;
1577;SDS011;57623;53.608;10.004;2024-02-26T07:55:57;18.30;;;13.63;;
1577;SDS011;57623;53.608;10.004;2024-02-26T07:58:25;18.17;;;13.23;;
1577;SDS011;57623;53.608;10.004;2024-02-26T08:00:54;16.20;;;13.77;;
1577;SDS011;57623;53.608;10.004;2024-02-26T08:03:23;15.90;;;13.30;;
1577;SDS011;57623;53.608;10.004;2024-02-26T08:05:51;17.73;;;13.87;;
1577;SDS011;57623;53.608;10.004;2024-02-26T08:08:19;17.07;;;13.10;;
1577;SDS011;57623;53.608;10.004;2024-02-26T08:10:47;18.50;;;14.03;;
1577;SDS011;57623;53.608;10.004;2024-02-26T08:13:15;18.40;;;14.27;;
1577;SDS011;57623;53.608;10.004;2024-02-26T08:15:43;18.30;;;14.50;;
1577;SDS011;57623;53.608;10.004;2024-02-26T08:18:13;19.70;;;14.07;;
1577;SDS011;57623;53.608;10.004;2024-02-26T08:20:42;17.67;;;14.20;;
1577;SDS011;57623;53.608;10.004;2024-02-26T08:23:10;18.30;;;13.93;;
1577;SDS011;57623;53.608;10.004;2024-02-26T08:25:38;19.97;;;14.63;;
1577;SDS011;57623;53.608;10.004;2024-02-26T08:28:06;19.70;;;13.90;;
1577;SDS011;57623;53.608;10.004;2024-02-26T08:30:34;18.50;;;13.73;;
1577;SDS011;57623;53.608;10.004;2024-02-26T08:33:02;18.53;;;13.80;;
1577;SDS011;57623;53.608;10.004;2024-02-26T08:35:32;17.60;;;14.00;;
1577;SDS011;57623;53.608;10.004;2024-02-26T08:38:00;17.70;;;14.00;;
1577;SDS011;57623;53.608;10.004;2024-02-26T08:40:29;20.33;;;13.30;;
1577;SDS011;57623;53.608;10.004;2024-02-26T08:42:57;19.43;;;14.00;;
1577;SDS011;57623;53.608;10.004;2024-02-26T08:45:25;17.50;;;14.47;;
1577;SDS011;57623;53.608;10.004;2024-02-26T08:47:56;19.47;;;13.87;;
1577;SDS011;57623;53.608;10.004;2024-02-26T08:50:25;17.93;;;13.57;;
1577;SDS011;57623;53.608;10.004;2024-02-26T08:52:54;18.80;;;14.37;;
1577;SDS011;57623;53.608;10.004;2024-02-26T08:55:22;17.30;;;13.47;;
1577;SDS011;57623;53.608;10.004;2024-02-26T08:57:50;14.73;;;12.43;;
1577;SDS011;57623;53.608;10.004;2024-02-26T09:00:19;15.40;;;12.67;;
1577;SDS011;57623;53.608;10.004;2024-02-26T09:02:47;17.50;;;13.27;;
1577;SDS011;57623;53.608;10.004;2024-02-26T09:05:15;19.13;;;14.00;;
1577;SDS011;57623;53.608;10.004;2024-02-26T09:07:43;16.63;;;12.20;;
1577;SDS011;57623;53.608;10.004;2024-02-26T09:10:14;17.97;;;12.37;;
1577;SDS011;57623;53.608;10.004;2024-02-26T09:12:42;16.27;;;12.50;;
1577;SDS011;57623;53.608;10.004;2024-02-26T09:15:10;17.97;;;14.33;;
1577;SDS011;57623;53.608;10.004;2024-02-26T09:17:39;20.10;;;14.27;;
1577;SDS011;57623;53.608;10.004;2024-02-26T09:20:07;16.70;;;12.43;;
1577;SDS011;57623;53.608;10.004;2024-02-26T09:22:36;18.47;;;12.97;;
1577;SDS011;57623;53.608;10.004;2024-02-26T09:25:05;17.73;;;13.63;;
1577;SDS011;57623;53.608;10.004;2024-02-26T09:27:35;17.00;;;13.90;;
1577;SDS011;57623;53.608;10.004;2024-02-26T09:30:08;16.50;;;12.27;;
1577;SDS011;57623;53.608;10.004;2024-02-26T09:32:37;17.67;;;13.70;;
1577;SDS011;57623;53.608;10.004;2024-02-26T09:35:05;20.27;;;13.57;;
1577;SDS011;57623;53.608;10.004;2024-02-26T09:37:34;17.87;;;12.80;;
1577;SDS011;57623;53.608;10.004;2024-02-26T09:40:03;18.50;;;13.37;;
1577;SDS011;57623;53.608;10.004;2024-02-26T09:42:34;18.43;;;13.63;;
1577;SDS011;57623;53.608;10.004;2024-02-26T09:45:03;20.03;;;14.00;;
1577;SDS011;57623;53.608;10.004;2024-02-26T09:47:35;17.10;;;13.43;;
1577;SDS011;57623;53.608;10.004;2024-02-26T09:50:05;17.47;;;13.57;;
1577;SDS011;57623;53.608;10.004;2024-02-26T09:52:38;17.57;;;13.67;;
1577;SDS011;57623;53.608;10.004;2024-02-26T09:55:09;19.93;;;14.90;;
1577;SDS011;57623;53.608;10.004;2024-02-26T09:57:38;17.50;;;13.67;;
1577;SDS011;57623;53.608;10.004;2024-02-26T10:00:12;20.93;;;14.60;;
1577;SDS011;57623;53.608;10.004;2024-02-26T10:02:45;20.33;;;13.70;;
1577;SDS011;57623;53.608;10.004;2024-02-26T10:05:14;20.17;;;13.00;;
1577;SDS011;57623;53.608;10.004;2024-02-26T10:07:45;19.20;;;14.53;;
1577;SDS011;57623;53.608;10.004;2024-02-26T10:10:13;19.67;;;14.33;;
1577;SDS011;57623;53.608;10.004;2024-02-26T10:12:43;19.57;;;13.30;;
1577;SDS011;57623;53.608;10.004;2024-02-26T10:15:11;18.43;;;13.80;;
1577;SDS011;57623;53.608;10.004;2024-02-26T10:17:39;19.87;;;14.00;;
1577;SDS011;57623;53.608;10.004;2024-02-26T10:20:11;21.00;;;14.70;;
1577;SDS011;57623;53.608;10.004;2024-02-26T10:22:41;20.57;;;14.73;;
1577;SDS011;57623;53.608;10.004;2024-02-26T10:25:09;18.93;;;13.20;;
1577;SDS011;57623;53.608;10.004;2024-02-26T10:27:37;20.33;;;12.97;;
1577;SDS011;57623;53.608;10.004;2024-02-26T10:30:15;19.77;;;13.63;;
1577;SDS011;57623;53.608;10.004;2024-02-26T10:32:46;22.23;;;13.77;;
1577;SDS011;57623;53.608;10.004;2024-02-26T10:35:15;18.40;;;14.00;;
1577;SDS011;57623;53.608;10.004;2024-02-26T10:37:44;20.70;;;14.30;;
1577;SDS011;57623;53.608;10.004;2024-02-26T10:40:12;18.30;;;13.50;;
1577;SDS011;57623;53.608;10.004;2024-02-26T10:42:41;17.80;;;13.60;;
1577;SDS011;57623;53.608;10.004;2024-02-26T10:45:11;20.83;;;14.03;;
1577;SDS011;57623;53.608;10.004;2024-02-26T10:47:41;21.30;;;15.50;;
1577;SDS011;57623;53.608;10.004;2024-02-26T10:50:09;17.30;;;12.67;;
1577;SDS011;57623;53.608;10.004;2024-02-26T10:52:40;19.77;;;12.73;;
1577;SDS011;57623;53.608;10.004;2024-02-26T10:55:12;22.60;;;15.23;;
1577;SDS011;57623;53.608;10.004;2024-02-26T10:57:44;19.70;;;13.10;;
1577;SDS011;57623;53.608;10.004;2024-02-26T11:00:14;21.43;;;14.63;;
1577;SDS011;57623;53.608;10.004;2024-02-26T11:02:45;19.10;;;13.50;;
1577;SDS011;57623;53.608;10.004;2024-02-26T11:05:13;20.53;;;13.40;;
1577;SDS011;57623;53.608;10.004;2024-02-26T11:07:42;17.10;;;12.07;;
1577;SDS011;57623;53.608;10.004;2024-02-26T11:10:13;17.80;;;13.40;;
1577;SDS011;57623;53.608;10.004;2024-02-26T11:12:42;17.23;;;13.37;;
1577;SDS011;57623;53.608;10.004;2024-02-26T11:15:11;18.17;;;12.70;;
1577;SDS011;57623;53.608;10.004;2024-02-26T11:17:40;17.63;;;12.27;;
1577;SDS011;57623;53.608;10.004;2024-02-26T11:20:11;17.27;;;12.30;;
1577;SDS011;57623;53.608;10.004;2024-02-26T11:22:41;16.10;;;12.57;;
1577;SDS011;57623;53.608;10.004;2024-02-26T11:25:09;16.93;;;13.00;;
1577;SDS011;57623;53.608;10.004;2024-02-26T11:27:39;16.70;;;12.63;;
1577;SDS011;57623;53.608;10.004;2024-02-26T11:30:11;16.40;;;12.57;;
1577;SDS011;57623;53.608;10.004;2024-02-26T11:32:40;17.17;;;12.40;;
1577;SDS011;57623;53.608;10.004;2024-02-26T11:35:14;16.90;;;11.80;;
1577;SDS011;57623;53.608;10.004;2024-02-26T11:37:51;14.63;;;11.00;;
1577;SDS011;57623;53.608;10.004;2024-02-26T11:40:21;15.80;;;12.20;;
1577;SDS011;57623;53.608;10.004;2024-02-26T11:42:50;14.07;;;10.67;;
1577;SDS011;57623;53.608;10.004;2024-02-26T11:45:47;13.13;;;10.50;;
1577;SDS011;57623;53.608;10.004;2024-02-26T11:48:21;12.70;;;10.80;;
1577;SDS011;57623;53.608;10.004;2024-02-26T11:50:52;13.70;;;10.20;;
1577;SDS011;57623;53.608;10.004;2024-02-26T11:53:25;11.90;;;10.27;;
1577;SDS011;57623;53.608;10.004;2024-02-26T11:58:59;12.80;;;10.23;;
1577;SDS011;57623;53.608;10.004;2024-02-26T12:01:44;12.60;;;10.57;;
1577;SDS011;57623;53.608;10.004;2024-02-26T12:04:18;11.30;;;10.10;;
1577;SDS011;57623;53.608;10.004;2024-02-26T12:06:52;11.23;;;10.03;;
1577;SDS011;57623;53.608;10.004;2024-02-26T12:09:32;12.10;;;10.80;;
1577;SDS011;57623;53.608;10.004;2024-02-26T12:12:01;13.53;;;12.03;;
1577;SDS011;57623;53.608;10.004;2024-02-26T12:14:32;11.90;;;10.70;;
1577;SDS011;57623;53.608;10.004;2024-02-26T12:17:01;11.90;;;10.30;;
1577;SDS011;57623;53.608;10.004;2024-02-26T12:19:33;13.70;;;11.30;;
1577;SDS011;57623;53.608;10.004;2024-02-26T12:22:08;13.10;;;10.90;;
1577;SDS011;57623;53.608;10.004;2024-02-26T12:24:40;11.60;;;10.40;;
1577;SDS011;57623;53.608;10.004;2024-02-26T12:27:08;12.83;;;10.73;;
1577;SDS011;57623;53.608;10.004;2024-02-26T12:29:36;12.90;;;11.10;;
1577;SDS011;57623;53.608;10.004;2024-02-26T12:32:04;11.57;;;10.37;;
1577;SDS011;57623;53.608;10.004;2024-02-26T12:34:33;12.50;;;10.90;;
1577;SDS011;57623;53.608;10.004;2024-02-26T12:37:02;13.47;;;10.67;;
1577;SDS011;57623;53.608;10.004;2024-02-26T12:39:32;12.13;;;10.80;;
1577;SDS011;57623;53.608;10.004;2024-02-26T12:42:00;11.33;;;10.23;;
1577;SDS011;57623;53.608;10.004;2024-02-26T12:44:29;13.07;;;10.90;;
1577;SDS011;57623;53.608;10.004;2024-02-26T12:47:01;12.73;;;10.70;;
1577;SDS011;57623;53.608;10.004;2024-02-26T12:49:30;11.50;;;10.30;;
1577;SDS011;57623;53.608;10.004;2024-02-26T12:51:59;13.63;;;11.40;;
1577;SDS011;57623;53.608;10.004;2024-02-26T12:54:28;11.80;;;10.13;;
1577;SDS011;57623;53.608;10.004;2024-02-26T12:57:00;12.57;;;10.50;;
1577;SDS011;57623;53.608;10.004;2024-02-26T12:59:29;12.17;;;9.67;;
1577;SDS011;57623;53.608;10.004;2024-02-26T13:01:58;12.43;;;10.60;;
1577;SDS011;57623;53.608;10.004;2024-02-26T13:04:28;11.63;;;9.63;;
1577;SDS011;57623;53.608;10.004;2024-02-26T13:06:57;11.80;;;10.20;;
1577;SDS011;57623;53.608;10.004;2024-02-26T13:09:32;11.90;;;9.53;;
1577;SDS011;57623;53.608;10.004;2024-02-26T13:12:04;11.80;;;9.63;;
1577;SDS011;57623;53.608;10.004;2024-02-26T13:14:33;10.50;;;9.40;;
1577;SDS011;57623;53.608;10.004;2024-02-26T13:17:01;10.63;;;9.13;;
1577;SDS011;57623;53.608;10.004;2024-02-26T13:19:30;10.27;;;9.10;;
1577;SDS011;57623;53.608;10.004;2024-02-26T13:22:03;10.83;;;9.70;;
1577;SDS011;57623;53.608;10.004;2024-02-26T13:24:32;12.00;;;9.93;;
1577;SDS011;57623;53.608;10.004;2024-02-26T13:27:00;11.23;;;10.03;;
1577;SDS011;57623;53.608;10.004;2024-02-26T13:29:31;11.83;;;9.40;;
1577;SDS011;57623;53.608;10.004;2024-02-26T13:31:59;11.17;;;9.40;;
1577;SDS011;57623;53.608;10.004;2024-02-26T13:34:28;12.80;;;10.67;;
1577;SDS011;57623;53.608;10.004;2024-02-26T13:36:57;11.93;;;10.13;;
1577;SDS011;57623;53.608;10.004;2024-02-26T13:39:26;11.43;;;10.23;;
1577;SDS011;57623;53.608;10.004;2024-02-26T13:41:55;12.20;;;10.07;;
1577;SDS011;57623;53.608;10.004;2024-02-26T13:44:23;11.17;;;9.97;;
1577;SDS011;57623;53.608;10.004;2024-02-26T13:46:53;11.43;;;10.00;;
1577;SDS011;57623;53.608;10.004;2024-02-26T13:49:21;11.93;;;10.07;;
1577;SDS011;57623;53.608;10.004;2024-02-26T13:51:49;11.63;;;10.07;;
1577;SDS011;57623;53.608;10.004;2024-02-26T13:54:18;12.20;;;10.57;;
1577;SDS011;57623;53.608;10.004;2024-02-26T13:56:46;12.10;;;10.60;;
1577;SDS011;57623;53.608;10.004;2024-02-26T13:59:14;12.73;;;11.33;;
1577;SDS011;57623;53.608;10.004;2024-02-26T14:01:42;13.00;;;11.00;;
1577;SDS011;57623;53.608;10.004;2024-02-26T14:04:12;12.53;;;10.23;;
1577;SDS011;57623;53.608;10.004;2024-02-26T14:06:40;12.70;;;9.90;;
1577;SDS011;57623;53.608;10.004;2024-02-26T14:09:08;12.13;;;10.73;;
1577;SDS011;57623;53.608;10.004;2024-02-26T14:11:36;12.67;;;10.50;;
1577;SDS011;57623;53.608;10.004;2024-02-26T14:14:06;13.07;;;10.63;;
1577;SDS011;57623;53.608;10.004;2024-02-26T14:16:34;12.40;;;9.80;;
1577;SDS011;57623;53.608;10.004;2024-02-26T14:19:02;12.83;;;10.70;;
1577;SDS011;57623;53.608;10.004;2024-02-26T14:21:31;11.43;;;9.63;;
1577;SDS011;57623;53.608;10.004;2024-02-26T14:23:59;12.50;;;10.20;;
1577;SDS011;57623;53.608;10.004;2024-02-26T14:26:27;12.37;;;11.03;;
1577;SDS011;57623;53.608;10.004;2024-02-26T14:28:55;12.43;;;9.83;;
1577;SDS011;57623;53.608;10.004;2024-02-26T14:31:23;10.93;;;9.73;;
1577;SDS011;57623;53.608;10.004;2024-02-26T14:33:52;12.30;;;10.23;;
1577;SDS011;57623;53.608;10.004;2024-02-26T14:36:20;11.80;;;10.03;;
1577;SDS011;57623;53.608;10.004;2024-02-26T14:38:50;13.30;;;11.80;;
1577;SDS011;57623;53.608;10.004;2024-02-26T14:41:18;13.00;;;11.13;;